Time;durP1;ratioP1;P1;durP2;ratioP2;P2;SDS_P1;SDS_P2;PMS_P1;PMS_P2;Temp;Humidity;BMP_temperature;BMP_pressure;BME280_temperature;BME280_humidity;BME280_pressure;Samples;Min_cycle;Max_cycle;Signal;HPM_P1;HPM_P2
2022/02/16 00:01:16;;;;;;;6.23;3.63;;;7.60;99.90;;;;;;5050428;28;20186;-71
2022/02/16 00:03:44;;;;;;;7.27;3.73;;;7.60;99.90;;;;;;5045952;28;20212;-71
2022/02/16 00:06:11;;;;;;;6.07;3.20;;;7.60;99.90;;;;;;5050108;28;20751;-71
2022/02/16 00:08:38;;;;;;;6.30;3.53;;;7.50;99.90;;;;;;5050618;28;20542;-71
2022/02/16 00:11:06;;;;;;;6.33;3.70;;;7.50;99.90;;;;;;5050113;28;20285;-71
2022/02/16 00:13:35;;;;;;;7.10;3.63;;;7.50;99.90;;;;;;5050361;28;20202;-71
2022/02/16 00:16:08;;;;;;;6.77;3.30;;;7.50;99.90;;;;;;5049963;28;20189;-69
2022/02/16 00:18:36;;;;;;;7.87;4.27;;;7.50;99.90;;;;;;5048519;28;20202;-70
2022/02/16 00:21:05;;;;;;;10.73;5.17;;;7.40;99.90;;;;;;5049405;28;20233;-71
2022/02/16 00:23:33;;;;;;;10.20;5.13;;;7.40;99.90;;;;;;5050078;28;20251;-71
2022/02/16 00:26:02;;;;;;;6.73;3.93;;;7.40;99.90;;;;;;5044796;28;20217;-70
2022/02/16 00:28:31;;;;;;;6.30;3.73;;;7.30;99.90;;;;;;5049199;28;20244;-70
2022/02/16 00:30:58;;;;;;;6.03;3.10;;;7.30;99.90;;;;;;5049692;28;20209;-70
2022/02/16 00:33:26;;;;;;;6.27;3.60;;;7.30;99.90;;;;;;5049892;28;20198;-70
2022/02/16 00:35:53;;;;;;;4.57;3.23;;;7.30;99.90;;;;;;5047403;28;20224;-69
2022/02/16 00:38:21;;;;;;;4.23;3.17;;;7.20;99.90;;;;;;5050197;28;20201;-69
2022/02/16 00:40:49;;;;;;;5.10;3.37;;;7.20;99.90;;;;;;5048711;28;20192;-69
2022/02/16 00:43:16;;;;;;;5.40;3.37;;;7.20;99.90;;;;;;5049105;28;20699;-70
2022/02/16 00:45:44;;;;;;;4.57;2.90;;;7.10;99.90;;;;;;5049227;28;20224;-70
2022/02/16 00:48:11;;;;;;;8.80;4.43;;;7.00;99.90;;;;;;5048516;28;20216;-69
2022/02/16 00:50:39;;;;;;;7.47;4.23;;;7.00;99.90;;;;;;5047187;28;20293;-69
2022/02/16 00:53:07;;;;;;;5.87;3.60;;;7.00;99.90;;;;;;5048526;28;20208;-69
2022/02/16 00:55:37;;;;;;;4.67;3.00;;;7.00;99.90;;;;;;5047147;28;20197;-68
2022/02/16 00:58:06;;;;;;;6.27;4.10;;;7.00;99.90;;;;;;5047977;28;20564;-69
2022/02/16 01:00:33;;;;;;;5.80;3.50;;;7.00;99.90;;;;;;5047989;28;20266;-69
2022/02/16 01:03:01;;;;;;;6.10;3.80;;;7.00;99.90;;;;;;5048454;28;20210;-69
2022/02/16 01:05:29;;;;;;;4.80;3.60;;;7.00;99.90;;;;;;5047061;28;20214;-69
2022/02/16 01:07:56;;;;;;;4.10;3.10;;;7.00;99.90;;;;;;5048064;28;20336;-69
2022/02/16 01:10:24;;;;;;;6.37;3.60;;;7.00;99.90;;;;;;5049370;28;20288;-69
2022/02/16 01:12:56;;;;;;;6.10;3.53;;;6.90;99.90;;;;;;5048745;28;20267;-68
2022/02/16 01:15:25;;;;;;;3.93;3.00;;;6.90;99.90;;;;;;5047414;28;20513;-69
2022/02/16 01:17:53;;;;;;;5.80;3.37;;;6.90;99.90;;;;;;5048204;28;20687;-69
2022/02/16 01:20:34;;;;;;;4.27;3.00;;;6.90;99.90;;;;;;5048234;28;20222;-69
2022/02/16 01:23:09;;;;;;;7.30;3.57;;;6.90;99.90;;;;;;5040434;28;20675;-71
2022/02/16 01:25:37;;;;;;;4.30;3.07;;;6.90;99.90;;;;;;5048739;28;20213;-70
2022/02/16 01:28:13;;;;;;;3.90;3.03;;;6.80;99.90;;;;;;5043845;28;20200;-70
2022/02/16 01:30:42;;;;;;;5.40;2.90;;;6.80;99.90;;;;;;5051615;28;20288;-69
2022/02/16 01:33:29;;;;;;;4.13;3.20;;;6.80;99.90;;;;;;5046847;28;20197;-71
2022/02/16 01:35:56;;;;;;;5.10;3.50;;;6.80;99.90;;;;;;5051988;28;20202;-72
2022/02/16 01:38:24;;;;;;;5.00;3.40;;;6.80;99.90;;;;;;5051839;28;20258;-72
2022/02/16 01:41:02;;;;;;;9.60;4.10;;;6.70;99.90;;;;;;5061538;28;20221;-69
2022/02/16 01:43:31;;;;;;;9.70;4.90;;;6.70;99.90;;;;;;5046907;28;20212;-68
2022/02/16 01:45:59;;;;;;;9.47;5.50;;;6.70;99.90;;;;;;5051577;28;20308;-68
2022/02/16 01:48:26;;;;;;;16.17;8.33;;;6.70;99.90;;;;;;5053036;28;20632;-69
2022/02/16 01:50:54;;;;;;;12.70;6.83;;;6.70;99.90;;;;;;5051451;28;20229;-68
2022/02/16 01:53:35;;;;;;;11.03;6.07;;;6.70;99.90;;;;;;5051710;28;20205;-68
2022/02/16 01:56:02;;;;;;;8.03;5.13;;;6.60;99.90;;;;;;5052756;28;20291;-69
2022/02/16 01:58:33;;;;;;;7.37;4.60;;;6.60;99.90;;;;;;5052130;28;20742;-68
2022/02/16 02:01:12;;;;;;;9.17;5.57;;;6.60;99.90;;;;;;5053177;28;20734;-68
2022/02/16 02:03:43;;;;;;;8.53;5.10;;;6.60;99.90;;;;;;5043188;28;20217;-68
2022/02/16 02:06:13;;;;;;;10.33;4.80;;;6.60;99.90;;;;;;5050318;28;20681;-69
2022/02/16 02:08:41;;;;;;;8.27;4.87;;;6.60;99.90;;;;;;5051730;28;20211;-69
2022/02/16 02:11:09;;;;;;;8.80;4.80;;;6.50;99.90;;;;;;5051095;28;20256;-68
2022/02/16 02:13:58;;;;;;;9.03;4.97;;;6.50;99.90;;;;;;5051606;28;20219;-70
2022/02/16 02:16:58;;;;;;;5.70;4.37;;;6.40;99.90;;;;;;5018330;28;20212;-68
2022/02/16 02:19:25;;;;;;;8.07;4.43;;;6.40;99.90;;;;;;5054213;28;20204;-68
2022/02/16 02:21:58;;;;;;;9.13;4.60;;;6.40;99.90;;;;;;5050864;28;20209;-68
2022/02/16 02:24:26;;;;;;;8.07;4.53;;;6.40;99.90;;;;;;5051206;28;20204;-70
2022/02/16 02:26:53;;;;;;;8.93;4.50;;;6.40;99.90;;;;;;5052638;28;20242;-65
2022/02/16 02:29:20;;;;;;;6.30;4.00;;;6.30;99.90;;;;;;5052953;28;20198;-70
2022/02/16 02:32:06;;;;;;;8.47;4.50;;;6.40;99.90;;;;;;5050155;28;20804;-72
2022/02/16 02:34:33;;;;;;;9.37;4.40;;;6.30;99.90;;;;;;5051162;28;20214;-71
2022/02/16 02:37:02;;;;;;;7.10;4.10;;;6.30;99.90;;;;;;5049378;28;20240;-71
2022/02/16 02:39:30;;;;;;;5.73;3.80;;;6.40;99.90;;;;;;5049771;28;20288;-70
2022/02/16 02:41:58;;;;;;;5.10;3.73;;;6.40;99.90;;;;;;5040382;28;20204;-67
2022/02/16 02:44:25;;;;;;;6.13;3.73;;;6.40;99.90;;;;;;5051400;28;20291;-67
2022/02/16 02:46:53;;;;;;;7.50;4.53;;;5.40;99.90;;;;;;5050181;28;20225;-66
2022/02/16 02:49:23;;;;;;;5.57;3.50;;;6.40;99.90;;;;;;5050245;28;20204;-67
2022/02/16 02:51:55;;;;;;;11.10;6.37;;;6.40;99.90;;;;;;5049820;28;20293;-66
2022/02/16 02:54:23;;;;;;;8.67;5.70;;;6.40;99.90;;;;;;5052157;28;20210;-67
2022/02/16 02:56:51;;;;;;;17.63;7.93;;;6.40;99.90;;;;;;5045099;28;20578;-67
2022/02/16 02:59:18;;;;;;;16.50;7.17;;;6.50;99.90;;;;;;5050984;28;20550;-66
2022/02/16 03:01:48;;;;;;;8.03;5.43;;;6.50;99.90;;;;;;5050235;28;20640;-66
2022/02/16 03:04:16;;;;;;;8.40;4.73;;;6.50;99.90;;;;;;5050053;28;20237;-66
2022/02/16 03:06:43;;;;;;;10.10;5.20;;;6.50;99.90;;;;;;5051182;28;20235;-66
2022/02/16 03:09:10;;;;;;;8.80;4.83;;;6.50;99.90;;;;;;5050421;28;20348;-66
2022/02/16 03:11:41;;;;;;;6.83;4.53;;;6.50;99.90;;;;;;5050016;28;20208;-67
2022/02/16 03:14:08;;;;;;;9.77;5.10;;;6.50;99.90;;;;;;5050833;28;20208;-66
2022/02/16 03:16:38;;;;;;;9.33;4.90;;;6.50;99.90;;;;;;5049814;28;20190;-66
2022/02/16 03:19:06;;;;;;;11.93;6.53;;;6.50;99.90;;;;;;5051215;28;20197;-68
2022/02/16 03:21:34;;;;;;;12.67;7.87;;;6.50;99.90;;;;;;5049290;28;20218;-68
2022/02/16 03:24:01;;;;;;;18.20;8.90;;;6.50;99.90;;;;;;5050056;28;20206;-68
2022/02/16 03:26:30;;;;;;;23.57;10.97;;;6.50;99.90;;;;;;5049018;28;20321;-67
2022/02/16 03:29:00;;;;;;;20.20;10.93;;;6.50;99.90;;;;;;5050671;28;20591;-67
2022/02/16 03:31:33;;;;;;;18.17;9.73;;;6.50;99.90;;;;;;5049573;28;20557;-67
2022/02/16 03:34:02;;;;;;;13.50;8.33;;;6.50;99.90;;;;;;5049507;28;20689;-66
2022/02/16 03:36:30;;;;;;;12.60;7.03;;;6.50;99.90;;;;;;5049217;28;20273;-68
2022/02/16 03:38:58;;;;;;;15.00;8.80;;;6.50;99.90;;;;;;5047132;28;20594;-66
2022/02/16 03:41:29;;;;;;;25.97;10.50;;;6.60;99.90;;;;;;5039167;28;20199;-67
2022/02/16 03:44:00;;;;;;;26.00;13.30;;;6.50;99.90;;;;;;5049672;28;20235;-67
2022/02/16 03:46:34;;;;;;;21.37;11.00;;;6.60;99.90;;;;;;5049630;28;20299;-66
2022/02/16 03:49:01;;;;;;;14.17;9.27;;;6.60;99.90;;;;;;5049343;28;20255;-68
2022/02/16 03:51:29;;;;;;;17.23;9.60;;;6.60;99.90;;;;;;5049000;28;20255;-69
2022/02/16 03:53:57;;;;;;;12.13;7.73;;;5.80;99.90;;;;;;5049352;28;20232;-67
2022/02/16 03:56:26;;;;;;;13.53;7.70;;;6.60;99.90;;;;;;5049366;28;20280;-67
2022/02/16 03:58:54;;;;;;;13.67;7.80;;;6.60;99.90;;;;;;5049329;28;20201;-71
2022/02/16 04:01:23;;;;;;;13.93;7.87;;;6.60;99.90;;;;;;5049394;28;20270;-72
2022/02/16 04:03:51;;;;;;;16.57;8.23;;;6.50;99.90;;;;;;5048794;28;20311;-68
2022/02/16 04:06:19;;;;;;;15.33;8.20;;;6.60;99.90;;;;;;5049871;28;20730;-68
2022/02/16 04:08:46;;;;;;;17.43;10.23;;;6.60;99.90;;;;;;5049057;28;20234;-68
2022/02/16 04:11:13;;;;;;;24.33;11.77;;;6.60;99.90;;;;;;5048742;28;20305;-69
2022/02/16 04:13:42;;;;;;;14.40;9.20;;;6.60;99.90;;;;;;5049033;28;20279;-69
2022/02/16 04:16:10;;;;;;;27.00;14.17;;;6.60;99.90;;;;;;5048696;28;20574;-69
2022/02/16 04:18:38;;;;;;;20.70;11.40;;;6.60;99.90;;;;;;5048362;28;20205;-68
2022/02/16 04:21:06;;;;;;;19.03;10.87;;;6.60;99.90;;;;;;5048367;28;20359;-69
2022/02/16 04:23:42;;;;;;;32.63;15.10;;;6.60;99.90;;;;;;5049067;28;20255;-68
2022/02/16 04:26:10;;;;;;;24.50;12.67;;;6.60;99.90;;;;;;5048012;28;20556;-70
2022/02/16 04:28:38;;;;;;;17.00;10.53;;;6.60;99.90;;;;;;5049129;28;20698;-68
2022/02/16 04:31:06;;;;;;;18.87;10.00;;;6.60;99.90;;;;;;5048504;28;20217;-69
2022/02/16 04:33:34;;;;;;;15.37;9.33;;;6.60;99.90;;;;;;5047528;28;20200;-69
2022/02/16 04:36:04;;;;;;;20.60;10.30;;;6.60;99.90;;;;;;5049697;28;20218;-70
2022/02/16 04:38:32;;;;;;;14.87;8.63;;;6.50;99.90;;;;;;5047169;28;20657;-68
2022/02/16 04:41:00;;;;;;;15.10;8.57;;;6.50;99.90;;;;;;5038863;28;20231;-69
2022/02/16 04:43:29;;;;;;;16.60;8.83;;;6.50;99.90;;;;;;5048239;28;20285;-69
2022/02/16 04:45:57;;;;;;;16.00;7.80;;;6.50;99.90;;;;;;5047395;28;20211;-68
2022/02/16 04:48:24;;;;;;;11.27;7.27;;;6.50;99.90;;;;;;5049359;28;20648;-68
2022/02/16 04:50:52;;;;;;;10.50;7.03;;;6.50;99.90;;;;;;5046872;28;20211;-68
2022/02/16 04:53:26;;;;;;;16.63;8.67;;;6.50;99.90;;;;;;5047808;28;20574;-68
2022/02/16 04:55:53;;;;;;;21.57;11.10;;;6.50;99.90;;;;;;5049540;28;20191;-69
2022/02/16 04:58:24;;;;;;;26.97;12.80;;;6.50;99.90;;;;;;5048893;28;20735;-69
2022/02/16 05:00:55;;;;;;;21.80;10.70;;;6.50;99.90;;;;;;5044506;28;20223;-68
2022/02/16 05:03:27;;;;;;;17.53;10.27;;;6.50;99.90;;;;;;5040743;28;20656;-68
2022/02/16 05:05:56;;;;;;;15.47;8.93;;;6.60;99.90;;;;;;5052875;28;20275;-67
2022/02/16 05:08:25;;;;;;;21.57;10.77;;;6.60;99.90;;;;;;5028556;28;20222;-67
2022/02/16 05:10:53;;;;;;;20.40;11.40;;;7.30;99.90;;;;;;5047975;28;20188;-68
2022/02/16 05:13:42;;;;;;;19.20;10.67;;;6.60;99.90;;;;;;5057016;28;20201;-68
2022/02/16 05:16:12;;;;;;;26.80;12.80;;;6.60;99.90;;;;;;5047984;28;20218;-69
2022/02/16 05:18:39;;;;;;;23.13;12.47;;;6.60;99.90;;;;;;5047756;28;20674;-70
2022/02/16 05:21:13;;;;;;;20.60;10.70;;;6.60;99.90;;;;;;5048819;28;20776;-68
2022/02/16 05:23:42;;;;;;;23.83;12.77;;;6.60;99.90;;;;;;5049295;28;20218;-68
2022/02/16 05:26:13;;;;;;;24.93;13.37;;;6.60;99.90;;;;;;5047111;28;20195;-68
2022/02/16 05:28:40;;;;;;;20.50;11.20;;;6.60;99.90;;;;;;5048153;28;20696;-69
2022/02/16 05:31:08;;;;;;;23.20;12.10;;;6.60;99.90;;;;;;5048116;28;20214;-69
2022/02/16 05:33:36;;;;;;;24.37;13.20;;;6.60;99.90;;;;;;5047453;28;20629;-69
2022/02/16 05:36:05;;;;;;;21.20;10.63;;;6.60;99.90;;;;;;5047964;28;20296;-69
2022/02/16 05:38:35;;;;;;;23.83;11.13;;;6.60;99.90;;;;;;5045743;28;20198;-68
2022/02/16 05:41:04;;;;;;;21.87;12.13;;;6.60;99.90;;;;;;5043419;28;20210;-69
2022/02/16 05:43:32;;;;;;;21.37;11.50;;;6.60;99.90;;;;;;5048410;28;20228;-68
2022/02/16 05:45:59;;;;;;;15.83;9.47;;;6.60;99.90;;;;;;5047415;28;20248;-69
2022/02/16 05:48:29;;;;;;;14.03;8.53;;;6.70;99.90;;;;;;5047948;28;20261;-69
2022/02/16 05:50:57;;;;;;;16.80;8.50;;;6.70;99.90;;;;;;5047628;28;20215;-69
2022/02/16 05:53:25;;;;;;;13.87;7.67;;;6.70;99.90;;;;;;5048751;28;20207;-69
2022/02/16 05:55:53;;;;;;;12.00;7.23;;;6.70;99.90;;;;;;5046959;28;20215;-68
2022/02/16 05:58:22;;;;;;;19.93;9.90;;;6.70;99.90;;;;;;5049324;28;20210;-69
2022/02/16 06:00:49;;;;;;;21.00;11.60;;;6.70;99.90;;;;;;5050982;28;20199;-70
2022/02/16 06:03:38;;;;;;;18.70;10.37;;;6.80;99.90;;;;;;5051043;28;20207;-70
2022/02/16 06:06:06;;;;;;;19.17;10.07;;;6.80;99.90;;;;;;5050680;28;20208;-69
2022/02/16 06:08:34;;;;;;;16.40;9.43;;;6.80;99.90;;;;;;5050855;28;20251;-69
2022/02/16 06:11:02;;;;;;;17.23;10.20;;;6.80;99.90;;;;;;5052388;28;20198;-69
2022/02/16 06:13:32;;;;;;;21.07;10.77;;;6.90;99.90;;;;;;5056081;28;20237;-69
2022/02/16 06:15:59;;;;;;;18.47;9.60;;;6.80;99.90;;;;;;5054793;28;20242;-69
2022/02/16 06:18:28;;;;;;;16.43;10.40;;;6.90;99.90;;;;;;5036950;28;20205;-68
2022/02/16 06:20:56;;;;;;;18.37;9.70;;;6.90;99.90;;;;;;5048618;28;20643;-68
2022/02/16 06:23:24;;;;;;;13.93;8.50;;;6.90;99.90;;;;;;5053162;28;20231;-68
2022/02/16 06:25:51;;;;;;;17.90;10.73;;;6.90;99.90;;;;;;5049433;28;20607;-69
2022/02/16 06:28:19;;;;;;;20.00;9.70;;;7.00;99.90;;;;;;5052034;28;20211;-68
2022/02/16 06:30:48;;;;;;;19.17;9.60;;;7.00;99.90;;;;;;5052310;28;20568;-68
2022/02/16 06:33:18;;;;;;;18.13;9.90;;;7.00;99.90;;;;;;5051577;28;20223;-68
2022/02/16 06:35:46;;;;;;;15.30;8.53;;;7.00;99.90;;;;;;5050311;28;20212;-69
2022/02/16 06:38:14;;;;;;;17.43;9.23;;;7.00;99.90;;;;;;5050989;28;20211;-69
2022/02/16 06:40:42;;;;;;;17.30;8.47;;;7.00;99.90;;;;;;5050291;28;20204;-69
2022/02/16 06:43:10;;;;;;;12.33;8.40;;;7.00;99.90;;;;;;5052731;28;20216;-69
2022/02/16 06:45:38;;;;;;;14.10;8.43;;;7.00;99.90;;;;;;5051613;28;20223;-69
2022/02/16 06:48:07;;;;;;;12.73;7.77;;;7.00;99.90;;;;;;5050937;28;20227;-69
2022/02/16 06:50:35;;;;;;;15.27;8.97;;;7.10;99.90;;;;;;5049153;28;20206;-69
2022/02/16 06:53:06;;;;;;;17.57;9.50;;;7.10;99.90;;;;;;5050744;28;20219;-68
2022/02/16 06:55:37;;;;;;;17.83;9.37;;;7.10;99.90;;;;;;5051234;28;20672;-68
2022/02/16 06:58:05;;;;;;;13.67;8.20;;;7.00;99.90;;;;;;5061599;28;20189;-68
2022/02/16 07:00:32;;;;;;;13.27;8.20;;;7.10;99.90;;;;;;5052816;28;20197;-68
2022/02/16 07:03:00;;;;;;;11.37;7.23;;;7.00;99.90;;;;;;5074419;28;20196;-69
2022/02/16 07:05:36;;;;;;;15.63;9.27;;;7.00;99.90;;;;;;5037637;28;20663;-69
2022/02/16 07:08:08;;;;;;;11.70;7.00;;;7.10;99.90;;;;;;5057865;28;20329;-69
2022/02/16 07:10:35;;;;;;;10.67;6.13;;;7.00;99.90;;;;;;5045277;28;20218;-68
2022/02/16 07:13:03;;;;;;;11.30;7.50;;;7.10;99.90;;;;;;5048275;28;20470;-69
2022/02/16 07:15:32;;;;;;;16.30;8.00;;;7.10;99.90;;;;;;5053489;28;20200;-68
2022/02/16 07:18:01;;;;;;;15.70;8.43;;;7.10;99.90;;;;;;5043890;28;20196;-69
2022/02/16 07:20:32;;;;;;;13.20;7.07;;;7.10;99.90;;;;;;5054992;28;20607;-68
2022/02/16 07:23:04;;;;;;;9.37;6.63;;;7.10;99.90;;;;;;5047995;28;20355;-68
2022/02/16 07:25:32;;;;;;;11.47;6.67;;;7.10;99.90;;;;;;5050604;28;20278;-69
2022/02/16 07:27:59;;;;;;;10.23;6.80;;;7.10;99.90;;;;;;5050933;28;20205;-68
2022/02/16 07:30:26;;;;;;;10.10;6.93;;;7.10;99.90;;;;;;5049126;28;20685;-69
2022/02/16 07:32:53;;;;;;;9.63;6.23;;;7.10;99.90;;;;;;5048158;28;20219;-68
2022/02/16 07:35:21;;;;;;;9.87;6.67;;;7.10;99.90;;;;;;5031384;28;20316;-69
2022/02/16 07:37:50;;;;;;;12.57;7.07;;;7.10;99.90;;;;;;5047438;28;20210;-68
2022/02/16 07:40:19;;;;;;;9.47;5.93;;;7.10;99.90;;;;;;5052354;28;20743;-69
2022/02/16 07:42:47;;;;;;;8.67;5.80;;;7.10;99.90;;;;;;5030913;28;20195;-69
2022/02/16 07:45:26;;;;;;;9.43;6.30;;;7.10;99.90;;;;;;5045241;28;20303;-69
2022/02/16 07:47:55;;;;;;;8.80;6.40;;;7.10;99.90;;;;;;5048355;28;20210;-69
2022/02/16 07:50:23;;;;;;;11.13;6.10;;;7.10;99.90;;;;;;5047533;28;20200;-68
2022/02/16 07:53:22;;;;;;;9.13;6.03;;;7.10;99.90;;;;;;5045569;28;20211;-69
2022/02/16 07:55:53;;;;;;;7.80;5.70;;;7.10;99.90;;;;;;5048283;28;20199;-69
2022/02/16 07:58:24;;;;;;;8.47;5.83;;;7.10;99.90;;;;;;5050207;28;20203;-69
2022/02/16 08:00:52;;;;;;;7.07;5.50;;;7.10;99.90;;;;;;5048524;28;20208;-69
2022/02/16 08:03:22;;;;;;;9.57;5.97;;;7.20;99.90;;;;;;5048382;28;20214;-69
2022/02/16 08:05:51;;;;;;;10.60;6.10;;;7.10;99.90;;;;;;5047818;28;20208;-68
2022/02/16 08:08:23;;;;;;;9.93;5.63;;;7.10;99.90;;;;;;5048202;28;20219;-68
2022/02/16 08:10:53;;;;;;;11.63;5.40;;;7.20;99.90;;;;;;5051961;28;20207;-69
2022/02/16 08:13:22;;;;;;;10.40;6.40;;;7.20;99.90;;;;;;5047846;28;20301;-69
2022/02/16 08:16:28;;;;;;;9.47;5.73;;;7.20;99.90;;;;;;5048221;28;20284;-69
2022/02/16 08:19:04;;;;;;;8.30;5.20;;;7.20;99.90;;;;;;5048086;28;20701;-69
2022/02/16 08:21:33;;;;;;;9.70;5.80;;;7.20;99.90;;;;;;5047780;28;20210;-68
2022/02/16 08:24:04;;;;;;;10.93;5.40;;;7.20;99.90;;;;;;5048300;28;20215;-68
2022/02/16 08:26:33;;;;;;;12.50;5.70;;;7.20;99.90;;;;;;5041920;28;20211;-69
2022/02/16 08:29:02;;;;;;;9.23;5.83;;;7.20;99.90;;;;;;5047555;28;20236;-68
2022/02/16 08:31:29;;;;;;;10.83;6.23;;;7.10;99.90;;;;;;5047175;28;20195;-68
2022/02/16 08:34:16;;;;;;;9.57;6.23;;;7.10;99.90;;;;;;5048536;28;20214;-68
2022/02/16 08:36:55;;;;;;;11.60;6.17;;;7.10;99.90;;;;;;5048023;28;20231;-69
2022/02/16 08:39:24;;;;;;;10.33;5.30;;;7.20;99.90;;;;;;5048402;28;20207;-68
2022/02/16 08:41:54;;;;;;;10.27;5.03;;;7.20;99.90;;;;;;5042029;28;20654;-68
2022/02/16 08:44:21;;;;;;;9.67;6.10;;;7.20;99.90;;;;;;5044670;28;20196;-68
2022/02/16 08:46:48;;;;;;;9.80;5.70;;;7.20;99.90;;;;;;5037295;28;20199;-67
2022/02/16 08:49:15;;;;;;;10.03;4.90;;;7.20;99.90;;;;;;5048467;28;20232;-67
2022/02/16 08:51:42;;;;;;;9.80;4.43;;;7.20;99.90;;;;;;5049213;28;20564;-68
2022/02/16 08:54:10;;;;;;;10.43;4.83;;;7.30;99.90;;;;;;5049253;28;20200;-68
2022/02/16 08:56:38;;;;;;;11.73;6.03;;;7.30;99.90;;;;;;5047676;28;20204;-69
2022/02/16 08:59:07;;;;;;;8.37;5.57;;;7.40;99.90;;;;;;5042971;28;20205;-68
2022/02/16 09:01:35;;;;;;;13.73;5.60;;;7.30;99.90;;;;;;5048514;28;20206;-68
2022/02/16 09:04:03;;;;;;;11.50;5.63;;;7.30;99.90;;;;;;5048600;28;20215;-68
2022/02/16 09:06:31;;;;;;;7.50;4.80;;;7.30;99.90;;;;;;5048783;28;20237;-68
2022/02/16 09:08:58;;;;;;;15.77;6.23;;;7.30;99.90;;;;;;5048844;28;20208;-67
2022/02/16 09:11:26;;;;;;;9.37;5.63;;;7.40;99.90;;;;;;5048996;28;20211;-68
2022/02/16 09:13:54;;;;;;;10.00;5.27;;;7.30;99.90;;;;;;5049620;28;20394;-68
2022/02/16 09:16:22;;;;;;;6.70;4.70;;;7.30;99.90;;;;;;5048197;28;20201;-68
2022/02/16 09:18:50;;;;;;;7.87;4.53;;;7.30;99.90;;;;;;5040990;28;20654;-69
2022/02/16 09:21:17;;;;;;;5.70;4.03;;;7.30;99.90;;;;;;5046815;28;20672;-69
2022/02/16 09:23:45;;;;;;;7.60;4.23;;;7.30;99.90;;;;;;5047401;28;20675;-69
2022/02/16 09:26:12;;;;;;;5.57;4.00;;;7.40;99.90;;;;;;5047619;28;20215;-69
2022/02/16 09:28:39;;;;;;;4.00;3.33;;;7.40;99.90;;;;;;5049008;28;20221;-69
2022/02/16 09:31:06;;;;;;;5.13;3.70;;;7.40;99.90;;;;;;5048484;28;20196;-69
2022/02/16 09:33:35;;;;;;;6.77;4.77;;;7.50;99.90;;;;;;5047316;28;20221;-69
2022/02/16 09:36:02;;;;;;;7.20;4.97;;;7.50;99.90;;;;;;5048101;28;20220;-70
2022/02/16 09:38:29;;;;;;;10.47;6.03;;;7.50;99.90;;;;;;5046858;28;20185;-69
2022/02/16 09:40:57;;;;;;;5.40;4.07;;;7.50;99.90;;;;;;5048053;28;20645;-68
2022/02/16 09:43:24;;;;;;;5.50;4.30;;;7.50;99.90;;;;;;5042369;28;20221;-69
2022/02/16 09:45:53;;;;;;;7.20;4.70;;;7.50;99.90;;;;;;5048147;28;20201;-68
2022/02/16 09:48:21;;;;;;;6.43;4.17;;;7.50;99.90;;;;;;5052592;28;20205;-69
2022/02/16 09:50:50;;;;;;;7.17;4.40;;;7.50;99.90;;;;;;5051701;28;20226;-71
2022/02/16 09:53:17;;;;;;;11.50;5.63;;;7.50;99.90;;;;;;5052570;28;20713;-69
2022/02/16 09:55:44;;;;;;;7.93;4.97;;;7.50;99.90;;;;;;5052940;28;20205;-69
2022/02/16 09:58:11;;;;;;;8.90;5.10;;;7.60;99.90;;;;;;5052886;28;20259;-69
2022/02/16 10:00:59;;;;;;;8.93;5.73;;;7.50;99.90;;;;;;5052480;28;20190;-69
2022/02/16 10:03:26;;;;;;;6.87;4.97;;;7.50;99.90;;;;;;5048097;28;20691;-69
2022/02/16 10:05:55;;;;;;;8.32;5.25;;;7.50;99.90;;;;;;5047531;28;20441;-68
2022/02/16 10:08:40;;;;;;;6.43;4.53;;;7.60;99.90;;;;;;5052246;28;20186;-69
2022/02/16 10:11:08;;;;;;;9.07;5.53;;;7.60;99.90;;;;;;5052718;28;20247;-68
2022/02/16 10:13:38;;;;;;;11.23;6.43;;;7.60;99.90;;;;;;5051988;28;20680;-68
2022/02/16 10:16:05;;;;;;;11.67;5.93;;;7.70;99.90;;;;;;5051824;28;20536;-68
2022/02/16 10:18:33;;;;;;;12.00;6.30;;;7.70;99.90;;;;;;5047842;28;20197;-69
2022/02/16 10:21:09;;;;;;;9.70;5.83;;;7.70;99.90;;;;;;5051659;28;20254;-69
2022/02/16 10:23:43;;;;;;;10.60;6.37;;;7.60;99.90;;;;;;5047110;28;20201;-69
2022/02/16 10:26:11;;;;;;;7.57;4.63;;;7.60;99.90;;;;;;5050454;28;20197;-68
2022/02/16 10:28:42;;;;;;;8.53;5.40;;;7.60;99.90;;;;;;5048184;28;20202;-68
2022/02/16 10:31:10;;;;;;;6.57;5.10;;;7.60;99.90;;;;;;5048895;28;20227;-68
2022/02/16 10:33:39;;;;;;;8.57;5.40;;;7.60;99.90;;;;;;5051419;28;20675;-68
2022/02/16 10:36:11;;;;;;;8.07;5.00;;;7.60;99.90;;;;;;5051889;28;20610;-68
2022/02/16 10:38:53;;;;;;;11.60;6.00;;;7.60;99.90;;;;;;5051863;28;20197;-68
2022/02/16 10:41:21;;;;;;;8.63;6.23;;;7.60;99.90;;;;;;5051881;28;20192;-68
2022/02/16 10:43:50;;;;;;;15.57;5.60;;;7.60;99.90;;;;;;5046768;28;20197;-68
2022/02/16 10:46:20;;;;;;;9.50;5.57;;;7.60;99.90;;;;;;5043727;28;20201;-70
2022/02/16 10:48:47;;;;;;;8.80;5.40;;;7.60;99.90;;;;;;5051145;28;20640;-70
2022/02/16 10:51:22;;;;;;;7.77;4.30;;;7.60;99.90;;;;;;5051020;28;20242;-70
2022/02/16 10:53:53;;;;;;;6.23;4.43;;;7.70;99.90;;;;;;5050308;28;20706;-70
2022/02/16 10:56:20;;;;;;;7.33;5.10;;;7.70;99.90;;;;;;5047810;28;20676;-70
2022/02/16 10:58:49;;;;;;;8.37;5.30;;;7.70;99.90;;;;;;5051555;28;20208;-69
2022/02/16 11:01:17;;;;;;;8.33;5.30;;;7.70;99.90;;;;;;5051259;28;20225;-69
2022/02/16 11:03:50;;;;;;;8.70;5.73;;;7.80;99.90;;;;;;5048890;28;20736;-68
2022/02/16 11:06:17;;;;;;;7.57;5.70;;;7.70;99.90;;;;;;5049139;28;20247;-70
2022/02/16 11:08:47;;;;;;;7.97;4.93;;;7.80;99.90;;;;;;5051166;28;20196;-69
2022/02/16 11:11:18;;;;;;;9.60;5.33;;;7.80;99.90;;;;;;5051624;28;20281;-69
2022/02/16 11:13:45;;;;;;;6.93;4.33;;;7.80;99.90;;;;;;5051170;28;20208;-69
2022/02/16 11:16:13;;;;;;;6.50;4.20;;;7.90;99.90;;;;;;5050609;28;20335;-69
2022/02/16 11:18:53;;;;;;;9.70;4.97;;;7.90;99.90;;;;;;5048110;28;20697;-68
2022/02/16 11:21:22;;;;;;;9.90;5.07;;;7.90;99.90;;;;;;5048880;28;20201;-67
2022/02/16 11:23:53;;;;;;;9.57;4.33;;;7.90;99.90;;;;;;5050626;28;20202;-69
2022/02/16 11:26:35;;;;;;;5.10;4.13;;;7.40;99.90;;;;;;5046225;28;20279;-69
2022/02/16 11:29:11;;;;;;;5.30;3.97;;;8.00;99.90;;;;;;5032603;28;20213;-69
2022/02/16 11:31:41;;;;;;;7.07;4.87;;;8.00;99.90;;;;;;5050286;28;20201;-69
2022/02/16 11:34:20;;;;;;;8.13;4.90;;;8.10;99.90;;;;;;5050242;28;20561;-69
2022/02/16 11:36:55;;;;;;;6.20;4.93;;;8.10;99.90;;;;;;5050076;28;20296;-69
2022/02/16 11:40:00;;;;;;;13.87;6.00;;;8.10;99.90;;;;;;5043515;28;20216;-69
2022/02/16 11:42:53;;;;;;;7.60;5.17;;;8.10;99.90;;;;;;5050522;28;20202;-69
2022/02/16 11:45:21;;;;;;;6.90;4.83;;;8.10;99.90;;;;;;5047340;28;20221;-68
2022/02/16 11:47:53;;;;;;;6.80;5.00;;;8.10;99.90;;;;;;5050370;28;20636;-69
2022/02/16 11:50:42;;;;;;;6.77;4.33;;;8.10;99.90;;;;;;5048206;28;20316;-68
2022/02/16 11:53:13;;;;;;;8.30;4.67;;;8.10;99.90;;;;;;5049867;28;20194;-69
2022/02/16 11:55:43;;;;;;;5.90;4.47;;;8.20;99.90;;;;;;5039868;28;20204;-69
2022/02/16 11:58:16;;;;;;;6.43;4.33;;;8.20;99.90;;;;;;5050273;28;20618;-69
2022/02/16 12:00:45;;;;;;;4.03;3.63;;;8.20;99.90;;;;;;5050071;28;20190;-68
2022/02/16 12:03:22;;;;;;;4.37;3.43;;;8.20;99.90;;;;;;5049406;28;20280;-69
2022/02/16 12:05:58;;;;;;;5.57;3.77;;;8.20;99.90;;;;;;5049702;28;20194;-69
2022/02/16 12:08:29;;;;;;;5.07;4.13;;;8.20;99.90;;;;;;5046790;28;20556;-69
2022/02/16 12:11:08;;;;;;;8.73;4.87;;;8.20;99.90;;;;;;5050074;28;20709;-69
2022/02/16 12:13:37;;;;;;;5.30;4.37;;;8.20;99.90;;;;;;5048659;28;20309;-69
2022/02/16 12:16:07;;;;;;;6.50;4.47;;;8.30;99.90;;;;;;5049540;28;20255;-68
2022/02/16 12:18:35;;;;;;;6.67;4.27;;;8.30;99.90;;;;;;5041871;28;20205;-68
2022/02/16 12:21:03;;;;;;;7.33;4.33;;;8.30;99.90;;;;;;5049333;28;20293;-68
2022/02/16 12:23:35;;;;;;;8.57;4.00;;;8.30;99.90;;;;;;5049600;28;20256;-69
2022/02/16 12:26:09;;;;;;;7.03;3.60;;;8.30;99.90;;;;;;5049723;28;20252;-70
2022/02/16 12:28:51;;;;;;;9.43;4.50;;;8.40;99.90;;;;;;5049782;28;20236;-67
2022/02/16 12:31:19;;;;;;;11.83;4.90;;;8.50;99.90;;;;;;5040780;28;20208;-69
2022/02/16 12:33:56;;;;;;;6.13;4.50;;;8.50;99.90;;;;;;5045575;28;20208;-68
2022/02/16 12:36:25;;;;;;;8.33;4.90;;;8.50;99.90;;;;;;5049515;28;20240;-69
2022/02/16 12:38:58;;;;;;;9.17;5.67;;;8.40;99.90;;;;;;5048545;28;20202;-69
2022/02/16 12:41:28;;;;;;;5.97;3.90;;;8.40;99.90;;;;;;5048298;28;20542;-67
2022/02/16 12:43:59;;;;;;;4.33;3.80;;;8.40;99.90;;;;;;5048188;28;20263;-66
2022/02/16 12:46:30;;;;;;;9.07;4.60;;;8.40;99.90;;;;;;5048188;28;20690;-69
2022/02/16 12:48:57;;;;;;;7.43;4.43;;;8.50;99.90;;;;;;5049804;28;20582;-66
2022/02/16 12:51:27;;;;;;;8.30;4.63;;;8.50;99.90;;;;;;5048404;28;20297;-66
2022/02/16 12:53:57;;;;;;;12.67;5.50;;;8.50;99.90;;;;;;5049162;28;20194;-66
2022/02/16 12:56:25;;;;;;;10.33;4.83;;;8.50;99.90;;;;;;5049183;28;20263;-64
2022/02/16 12:58:53;;;;;;;6.50;4.23;;;8.50;99.90;;;;;;5049419;28;20232;-68
2022/02/16 13:01:31;;;;;;;12.17;4.83;;;8.40;99.90;;;;;;5048477;28;20212;-69
2022/02/16 13:04:07;;;;;;;6.00;4.70;;;8.40;99.90;;;;;;5049029;28;20201;-67
2022/02/16 13:06:39;;;;;;;6.50;4.67;;;8.40;99.90;;;;;;5046435;28;20619;-67